Jurbise, Belgium
Current Conditions -  °F | °C
As of 3:25 PM on Wednesday 22 Oct 2014 (Local Time) from EBCV Reporting Station
Few Clouds Few Clouds  
Wind Chill: 55°   Ceiling: Unl
Heat Index: 55°   Visibility: 6mi
Dew Point: 41°   Wind: 16mph
Humidity: 58%   Direction: 300°WNW
Pressure: 30.21"   Gusts: NA
Location:  50.53°N, 3.91°E
Report Text: EBCV 221325Z AUTO 30014KT 9999 FEW045/// 13/05 Q1023 BLU
Loading
Personal Weather Stations






























Interactive Weather Map
Tropical Storm Tracking
New forecast layout! Learn more

10-Day Weather Forecast

Advertisements
Track Severe Weather on mobile